createdAt,value
2023-05-04T00:03:15.559Z,97618.47
2023-05-04T00:07:18.444Z,97637.03
2023-05-04T00:11:18.640Z,97634.97
2023-05-04T00:15:18.945Z,97626.75
2023-05-04T00:19:19.704Z,97626.75
2023-05-04T00:23:22.486Z,97606.59
2023-05-04T00:27:22.776Z,97625.16
2023-05-04T00:31:23.092Z,97620.16
2023-05-04T00:35:23.310Z,97625.25
2023-05-04T00:39:26.406Z,97628.66
2023-05-04T00:43:26.538Z,97622.28
2023-05-04T00:47:27.694Z,97606.91
2023-05-04T00:51:29.237Z,97616.97
2023-05-04T00:55:32.775Z,97614.75
2023-05-04T00:59:33.578Z,97621.41
2023-05-04T01:03:35.627Z,97622.38
2023-05-04T01:07:46.036Z,97614.25
2023-05-04T01:12:01.437Z,97617.44
2023-05-04T01:16:02.666Z,97615.41
2023-05-04T01:20:04.366Z,97605.84
2023-05-04T01:24:08.878Z,97625.38
2023-05-04T01:28:16.850Z,97604.81
2023-05-04T01:32:20.479Z,97602.16
2023-05-04T01:36:21.920Z,97621.19
2023-05-04T01:40:24.936Z,97610.13
2023-05-04T01:44:25.187Z,97618.75
2023-05-04T01:48:26.075Z,97625.50
2023-05-04T01:52:27.404Z,97621.00
2023-05-04T01:56:30.205Z,97619.50
2023-05-04T02:00:31.066Z,97610.94
2023-05-04T02:04:34.462Z,97617.00
2023-05-04T02:08:35.566Z,97614.50
2023-05-04T02:12:38.406Z,97623.41
2023-05-04T02:16:38.672Z,97588.47
2023-05-04T02:20:38.880Z,97608.91
2023-05-04T02:24:41.026Z,97598.97
2023-05-04T02:28:43.841Z,97614.91
2023-05-04T02:32:44.218Z,97606.19
2023-05-04T02:36:44.394Z,97612.13
2023-05-04T02:40:45.119Z,97609.50
2023-05-04T02:44:48.010Z,97607.06
2023-05-04T02:48:48.396Z,97599.22
2023-05-04T02:52:48.742Z,97621.47
2023-05-04T02:56:48.989Z,97612.09
2023-05-04T03:00:56.446Z,97601.81
2023-05-04T03:04:56.711Z,97610.13
2023-05-04T03:08:59.720Z,97601.09
2023-05-04T03:13:04.029Z,97610.31
2023-05-04T03:17:06.986Z,97611.94
2023-05-04T03:21:07.573Z,97608.78
2023-05-04T03:25:10.717Z,97608.16
2023-05-04T03:29:10.976Z,97601.06
2023-05-04T03:33:16.966Z,97595.31
2023-05-04T03:37:17.639Z,97610.09
2023-05-04T03:41:17.937Z,97601.75
2023-05-04T03:45:18.367Z,97599.69
2023-05-04T03:49:21.325Z,97612.00
2023-05-04T03:53:21.604Z,97604.41
2023-05-04T03:57:22.596Z,97609.78
2023-05-04T04:01:23.924Z,97608.97
2023-05-04T04:05:26.886Z,97594.94
2023-05-04T04:09:29.085Z,97591.16
2023-05-04T04:13:30.574Z,97606.53
2023-05-04T04:17:31.656Z,97607.38
2023-05-04T04:21:34.489Z,97606.53
2023-05-04T04:25:34.764Z,97614.50
2023-05-04T04:29:35.814Z,97600.22
2023-05-04T04:33:36.468Z,97619.88
2023-05-04T04:37:39.249Z,97619.94
2023-05-04T04:41:39.738Z,97619.88
2023-05-04T04:45:41.440Z,97614.16
2023-05-04T04:49:41.788Z,97623.56
2023-05-04T04:53:44.484Z,97630.34
2023-05-04T04:57:45.221Z,97604.16
2023-05-04T05:01:45.561Z,97608.16
2023-05-04T05:05:45.866Z,97626.56
2023-05-04T05:09:48.758Z,97633.75
2023-05-04T05:13:49.278Z,97615.28
2023-05-04T05:17:49.598Z,97595.34
2023-05-04T05:21:49.964Z,97583.06
2023-05-04T05:25:53.457Z,97625.78
2023-05-04T05:29:54.581Z,97623.31
2023-05-04T05:33:55.976Z,97613.25
2023-05-04T05:37:56.172Z,97615.28
2023-05-04T05:42:02.085Z,97614.59
2023-05-04T05:46:02.297Z,97619.94
2023-05-04T05:50:02.834Z,97578.03
2023-05-04T05:54:03.186Z,97625.19
2023-05-04T05:58:06.097Z,97622.34
2023-05-04T06:02:06.673Z,97627.59
2023-05-04T06:06:07.206Z,97616.47
2023-05-04T06:10:09.043Z,97615.03
2023-05-04T06:14:12.248Z,97617.88
2023-05-04T06:18:12.514Z,97603.03
2023-05-04T06:22:12.736Z,97602.53
2023-05-04T06:26:13.547Z,97613.66
2023-05-04T06:30:18.800Z,97597.22
2023-05-04T06:34:19.939Z,97595.81
2023-05-04T06:38:20.202Z,97588.41
2023-05-04T06:42:20.409Z,97589.88
2023-05-04T06:46:25.561Z,97578.22
2023-05-04T06:50:27.030Z,97582.88
2023-05-04T06:54:27.759Z,97587.88
2023-05-04T06:58:28.061Z,97595.63
2023-05-04T07:02:30.989Z,97596.50
2023-05-04T07:06:32.371Z,97601.00
2023-05-04T07:10:32.955Z,97588.56
2023-05-04T07:14:33.295Z,97570.28
2023-05-04T07:18:36.290Z,97596.09
2023-05-04T07:22:37.544Z,97567.88
2023-05-04T07:26:37.729Z,97586.06
2023-05-04T07:30:37.943Z,97580.41
2023-05-04T07:34:45.529Z,97560.00
2023-05-04T07:38:47.732Z,97570.19
2023-05-04T07:42:47.968Z,97568.34
2023-05-04T07:46:48.612Z,97525.09
2023-05-04T07:50:51.562Z,97551.94
2023-05-04T07:54:55.447Z,97550.66
2023-05-04T07:58:56.296Z,97546.47
2023-05-04T08:02:57.065Z,97539.53
2023-05-04T08:06:59.905Z,97545.22
2023-05-04T08:11:15.821Z,97543.94
2023-05-04T08:15:17.175Z,97525.00
2023-05-04T08:19:17.455Z,97533.00
2023-05-04T08:23:20.232Z,97542.28
2023-05-04T08:27:20.421Z,97533.06
2023-05-04T08:31:21.627Z,97531.94
2023-05-04T08:35:23.955Z,97538.94
2023-05-04T08:39:27.059Z,97529.97
2023-05-04T08:43:27.495Z,97531.28
2023-05-04T08:47:29.311Z,97528.72
2023-05-04T08:51:30.262Z,97517.41
2023-05-04T08:55:36.440Z,97529.56
2023-05-04T08:59:37.567Z,97522.06
2023-05-04T09:03:38.556Z,97526.47
2023-05-04T09:07:39.036Z,97525.22
2023-05-04T09:11:41.927Z,97524.31
2023-05-04T09:15:42.552Z,97519.50
2023-05-04T09:19:44.324Z,97522.69
2023-05-04T09:23:52.647Z,97510.63
2023-05-04T09:27:58.731Z,97517.13
2023-05-04T09:31:58.999Z,97519.09
2023-05-04T09:35:59.821Z,97503.84
2023-05-04T09:40:02.581Z,97508.69
2023-05-04T09:44:05.968Z,97499.00
2023-05-04T09:48:17.916Z,97493.81
2023-05-04T09:52:18.581Z,97494.56
2023-05-04T09:56:35.500Z,97472.25
2023-05-04T10:00:39.691Z,97483.53
2023-05-04T10:04:40.588Z,97481.16
2023-05-04T10:08:41.588Z,97437.50
2023-05-04T10:12:43.122Z,97471.03
2023-05-04T10:17:00.049Z,97453.56
2023-05-04T10:21:26.193Z,97445.06
2023-05-04T10:26:06.160Z,97441.69
2023-05-04T10:30:07.901Z,97435.66
2023-05-04T10:34:12.573Z,97438.97
2023-05-04T10:38:14.863Z,97430.25
2023-05-04T10:42:15.088Z,97428.50
2023-05-04T10:46:22.942Z,97414.41
2023-05-04T10:50:25.850Z,97408.88
2023-05-04T10:54:26.097Z,97409.44
2023-05-04T10:58:32.459Z,97387.22
2023-05-04T11:02:34.175Z,97383.00
2023-05-04T11:06:38.583Z,97384.91
2023-05-04T11:10:39.610Z,97372.53
2023-05-04T11:14:43.413Z,97367.28
2023-05-04T11:18:46.290Z,97354.31
2023-05-04T11:22:50.469Z,97363.28
2023-05-04T11:26:52.157Z,97366.09
2023-05-04T11:30:53.729Z,97358.28
2023-05-04T11:34:55.262Z,97338.47
2023-05-04T11:38:59.871Z,97355.47
2023-05-04T11:43:02.557Z,97354.59
2023-05-04T11:47:03.449Z,97347.50
2023-05-04T11:51:05.747Z,97344.38
2023-05-04T11:55:11.694Z,97342.91
2023-05-04T11:59:12.428Z,97323.06
2023-05-04T12:03:16.461Z,97334.38
2023-05-04T12:07:16.833Z,97327.66
2023-05-04T12:11:25.688Z,97329.31
2023-05-04T12:15:37.808Z,97324.56
2023-05-04T12:19:37.947Z,97320.09
2023-05-04T12:23:38.461Z,97298.03
2023-05-04T12:27:44.747Z,97316.41
2023-05-04T12:31:45.123Z,97301.75
2023-05-04T12:35:45.452Z,97294.97
2023-05-04T12:39:45.735Z,97315.22
2023-05-04T12:43:49.655Z,97300.03
2023-05-04T12:47:49.759Z,97309.88
2023-05-04T12:51:50.570Z,97298.41
2023-05-04T12:55:50.994Z,97288.22
2023-05-04T12:59:53.876Z,97297.63
2023-05-04T13:03:54.128Z,97291.78
2023-05-04T13:07:56.307Z,97251.84
2023-05-04T13:11:56.644Z,97282.41
2023-05-04T13:16:00.104Z,97282.97
2023-05-04T13:20:00.394Z,97279.84
2023-05-04T13:24:00.612Z,97272.06
2023-05-04T13:28:00.928Z,97275.03
2023-05-04T13:32:04.212Z,97264.28
2023-05-04T13:36:04.748Z,97257.06
2023-05-04T13:40:04.996Z,97255.84
2023-05-04T13:44:05.278Z,97248.59
2023-05-04T13:48:08.386Z,97242.56
2023-05-04T13:52:09.448Z,97226.72
2023-05-04T13:56:10.045Z,97228.94
2023-05-04T14:00:13.137Z,97227.13
2023-05-04T14:04:16.681Z,97205.38
2023-05-04T14:08:17.303Z,97201.03
2023-05-04T14:12:19.816Z,97207.69
2023-05-04T14:16:20.389Z,97201.94
2023-05-04T14:20:23.551Z,97206.16
2023-05-04T14:24:23.902Z,97198.97
2023-05-04T14:28:24.105Z,97182.94
2023-05-04T14:32:24.554Z,97174.59
2023-05-04T14:36:27.384Z,97186.66
2023-05-04T14:40:28.100Z,97170.78
2023-05-04T14:44:30.071Z,97179.56
2023-05-04T14:48:30.822Z,97174.91
2023-05-04T14:52:34.228Z,97171.66
2023-05-04T14:56:34.426Z,97168.00
2023-05-04T15:00:34.717Z,97163.19
2023-05-04T15:04:35.224Z,97167.03
2023-05-04T15:08:38.023Z,97164.81
2023-05-04T15:12:39.727Z,97161.72
2023-05-04T15:16:39.999Z,97151.88
2023-05-04T15:20:41.194Z,97133.56
2023-05-04T15:24:44.151Z,97137.94
2023-05-04T15:28:44.868Z,97147.56
2023-05-04T15:32:45.479Z,97129.22
2023-05-04T15:36:46.217Z,97143.16
2023-05-04T15:40:49.034Z,97105.66
2023-05-04T15:44:49.393Z,97114.50
2023-05-04T15:48:50.882Z,97113.66
2023-05-04T15:52:51.159Z,97131.28
2023-05-04T15:56:54.353Z,97098.75
2023-05-04T16:00:54.763Z,97114.22
2023-05-04T16:04:55.421Z,97112.25
2023-05-04T16:08:55.689Z,97111.34
2023-05-04T16:13:04.176Z,97099.09
2023-05-04T16:17:04.974Z,97085.84
2023-05-04T16:21:05.308Z,97077.88
2023-05-04T16:25:05.488Z,97089.16
2023-05-04T16:29:08.371Z,97082.34
2023-05-04T16:33:08.704Z,97086.53
2023-05-04T16:37:10.886Z,97084.22
2023-05-04T16:41:11.610Z,97077.19
2023-05-04T16:45:16.372Z,97086.56
2023-05-04T16:49:16.936Z,97065.91
2023-05-04T16:53:17.214Z,97069.72
2023-05-04T16:57:17.471Z,97072.75
2023-05-04T17:01:20.811Z,97069.13
2023-05-04T17:05:21.718Z,97072.09
2023-05-04T17:09:22.002Z,97062.03
2023-05-04T17:13:22.321Z,97067.19
2023-05-04T17:17:26.295Z,97062.81
2023-05-04T17:21:26.526Z,97062.25
2023-05-04T17:25:27.564Z,97037.25
2023-05-04T17:29:27.911Z,97063.16
2023-05-04T17:33:30.840Z,97039.13
2023-05-04T17:37:31.320Z,97068.84
2023-05-04T17:41:31.668Z,97069.38
2023-05-04T17:45:32.057Z,97077.66
2023-05-04T17:49:35.052Z,97051.78
2023-05-04T17:53:35.563Z,97085.19
2023-05-04T17:57:35.943Z,97079.56
2023-05-04T18:01:36.267Z,97087.94
2023-05-04T18:05:39.284Z,97085.41
2023-05-04T18:09:39.526Z,97096.03
2023-05-04T18:13:39.894Z,97090.31
2023-05-04T18:17:40.774Z,97100.38
2023-05-04T18:21:43.734Z,97104.34
2023-05-04T18:25:44.501Z,97082.38
2023-05-04T18:29:46.036Z,97106.28
2023-05-04T18:33:46.586Z,97108.97
2023-05-04T18:37:49.800Z,97082.66
2023-05-04T18:41:50.524Z,97092.91
2023-05-04T18:45:50.948Z,97122.06
2023-05-04T18:49:54.706Z,97091.66
2023-05-04T18:53:57.932Z,97131.66
2023-05-04T18:57:58.528Z,97120.66
2023-05-04T19:01:58.864Z,97138.50
2023-05-04T19:05:59.621Z,97160.31
2023-05-04T19:10:06.634Z,97143.91
2023-05-04T19:14:08.811Z,97128.88
2023-05-04T19:22:41.779Z,97140.59
2023-05-04T19:26:44.818Z,97162.28
2023-05-04T19:30:46.360Z,97153.69
2023-05-04T19:34:46.774Z,97161.06
2023-05-04T19:38:50.103Z,97150.47
2023-05-04T19:42:53.417Z,97166.44
2023-05-04T19:46:53.837Z,97158.97
2023-05-04T19:50:54.299Z,97167.53
2023-05-04T19:54:57.386Z,97172.84
2023-05-04T19:59:02.812Z,97172.25
2023-05-04T20:03:03.478Z,97170.25
2023-05-04T20:07:04.334Z,97173.59
2023-05-04T20:11:06.250Z,97165.28
2023-05-04T20:15:10.147Z,97147.22
2023-05-04T20:19:12.262Z,97110.59
2023-05-04T20:23:15.331Z,97040.09
2023-05-04T20:27:15.894Z,97069.22
2023-05-04T20:31:56.182Z,97156.41
2023-05-04T20:35:54.429Z,97161.63
2023-05-04T20:40:12.362Z,97177.22
2023-05-04T20:44:15.410Z,97072.69
2023-05-04T20:48:18.324Z,97125.59
2023-05-04T20:52:18.603Z,97149.88
2023-05-04T20:56:19.034Z,97146.75
2023-05-04T21:00:20.278Z,97152.13
2023-05-04T21:04:23.073Z,97112.22
2023-05-04T21:08:23.234Z,97154.53
2023-05-04T21:12:23.650Z,97156.16
2023-05-04T21:16:25.176Z,97142.50
2023-05-04T21:20:28.282Z,97127.50
2023-05-04T21:24:28.563Z,97145.44
2023-05-04T21:28:28.905Z,97146.91
2023-05-04T21:32:29.254Z,97171.63
2023-05-04T21:36:32.300Z,97137.88
2023-05-04T21:40:32.532Z,97136.63
2023-05-04T21:44:32.763Z,97148.72
2023-05-04T21:48:33.779Z,97153.56
2023-05-04T21:52:36.614Z,97148.22
2023-05-04T21:56:36.820Z,97160.59
2023-05-04T22:00:36.959Z,97156.84
2023-05-04T22:04:37.393Z,97171.31
2023-05-04T22:08:40.354Z,97140.25
2023-05-04T22:12:41.140Z,97155.84
2023-05-04T22:16:41.516Z,97173.53
2023-05-04T22:20:42.581Z,97168.72
2023-05-04T22:24:45.726Z,97124.22
2023-05-04T22:28:46.538Z,97103.94
2023-05-04T22:32:47.291Z,97150.81
2023-05-04T22:36:47.576Z,97152.72
2023-05-04T22:40:50.429Z,97146.81
2023-05-04T22:44:50.786Z,97150.03
2023-05-04T22:48:51.816Z,97159.69
2023-05-04T22:52:52.132Z,97164.53
2023-05-04T22:56:55.902Z,97162.09
2023-05-04T23:00:56.048Z,97172.28
2023-05-04T23:04:57.224Z,97170.38
2023-05-04T23:08:57.448Z,97111.97
2023-05-04T23:13:00.222Z,97175.72
2023-05-04T23:17:00.375Z,97159.59
2023-05-04T23:21:00.602Z,97179.34
2023-05-04T23:25:00.926Z,97161.63
2023-05-04T23:29:03.775Z,97165.41
2023-05-04T23:33:03.978Z,97131.00
2023-05-04T23:37:04.279Z,97140.66
2023-05-04T23:41:06.202Z,97142.91
2023-05-04T23:45:10.726Z,97157.38
2023-05-04T23:49:10.889Z,97144.47
2023-05-04T23:53:10.993Z,97148.44
2023-05-04T23:57:11.612Z,97160.94
